createdAt,value
2023-03-17T00:00:11.077Z,94.71
2023-03-17T00:01:11.089Z,94.68
2023-03-17T00:02:11.141Z,94.86
2023-03-17T00:03:15.199Z,94.60
2023-03-17T00:04:13.079Z,94.57
2023-03-17T00:05:23.098Z,94.54
2023-03-17T00:06:15.088Z,94.66
2023-03-17T00:07:13.076Z,94.69
2023-03-17T00:08:19.080Z,94.75
2023-03-17T00:09:15.088Z,94.70
2023-03-17T00:10:15.086Z,94.82
2023-03-17T00:11:16.093Z,94.65
2023-03-17T00:12:11.085Z,94.71
2023-03-17T00:13:12.083Z,94.91
2023-03-17T00:14:11.097Z,94.91
2023-03-17T00:15:11.079Z,94.68
2023-03-17T00:16:18.160Z,94.67
2023-03-17T00:17:11.080Z,94.98
2023-03-17T00:18:16.106Z,94.84
2023-03-17T00:19:17.102Z,94.75
2023-03-17T00:20:14.085Z,94.55
2023-03-17T00:21:16.080Z,94.48
2023-03-17T00:22:17.088Z,94.67
2023-03-17T00:23:14.096Z,94.74
2023-03-17T00:24:14.891Z,95.00
2023-03-17T00:25:17.086Z,94.84
2023-03-17T00:26:11.081Z,94.61
2023-03-17T00:27:13.080Z,94.48
2023-03-17T00:28:16.077Z,94.43
2023-03-17T00:29:11.080Z,94.44
2023-03-17T00:30:11.082Z,94.61
2023-03-17T00:31:15.115Z,94.41
2023-03-17T00:32:17.082Z,94.60
2023-03-17T00:33:11.087Z,94.55
2023-03-17T00:34:14.079Z,94.48
2023-03-17T00:35:15.083Z,94.69
2023-03-17T00:36:15.089Z,94.55
2023-03-17T00:37:11.099Z,94.37
2023-03-17T00:38:19.087Z,94.36
2023-03-17T00:40:21.085Z,94.42
2023-03-17T00:42:13.054Z,94.10
2023-03-17T00:43:12.088Z,94.13
2023-03-17T00:44:11.079Z,94.10
2023-03-17T00:45:11.080Z,94.16
2023-03-17T00:46:19.117Z,94.08
2023-03-17T00:47:11.085Z,94.01
2023-03-17T00:48:15.080Z,94.18
2023-03-17T00:49:15.079Z,93.91
2023-03-17T00:51:13.076Z,94.01
2023-03-17T00:52:11.078Z,93.97
2023-03-17T00:53:14.078Z,93.96
2023-03-17T00:54:11.082Z,94.04
2023-03-17T00:55:11.075Z,94.26
2023-03-17T00:56:15.080Z,94.54
2023-03-17T00:57:11.087Z,94.54
2023-03-17T00:58:19.077Z,94.64
2023-03-17T00:59:21.077Z,94.52
2023-03-17T01:00:19.062Z,94.25
2023-03-17T01:01:11.115Z,94.22
2023-03-17T01:02:12.248Z,94.18
2023-03-17T01:03:12.080Z,93.98
2023-03-17T01:04:11.062Z,93.93
2023-03-17T01:05:11.065Z,93.66
2023-03-17T01:06:12.068Z,93.78
2023-03-17T01:07:11.059Z,93.80
2023-03-17T01:08:11.072Z,93.70
2023-03-17T01:09:15.059Z,93.93
2023-03-17T01:10:16.059Z,94.22
2023-03-17T01:11:15.068Z,94.08
2023-03-17T01:12:12.060Z,94.07
2023-03-17T01:13:13.057Z,94.18
2023-03-17T01:14:11.058Z,94.27
2023-03-17T01:15:11.062Z,94.24
2023-03-17T01:16:13.137Z,94.15
2023-03-17T01:17:15.064Z,94.14
2023-03-17T01:18:11.062Z,94.30
2023-03-17T01:19:11.059Z,94.29
2023-03-17T01:20:16.056Z,94.41
2023-03-17T01:21:11.078Z,94.31
2023-03-17T01:22:11.064Z,94.45
2023-03-17T01:23:11.059Z,94.45
2023-03-17T01:24:11.067Z,94.72
2023-03-17T01:25:11.068Z,94.96
2023-03-17T01:26:11.060Z,95.02
2023-03-17T01:27:11.070Z,95.09
2023-03-17T01:28:15.098Z,94.91
2023-03-17T01:29:11.070Z,94.76
2023-03-17T01:30:19.068Z,94.87
2023-03-17T01:31:11.103Z,94.77
2023-03-17T01:32:11.064Z,94.93
2023-03-17T01:33:11.081Z,94.92
2023-03-17T01:34:11.064Z,94.85
2023-03-17T01:35:11.064Z,94.70
2023-03-17T01:36:11.073Z,94.60
2023-03-17T01:37:11.063Z,94.59
2023-03-17T01:38:11.066Z,94.52
2023-03-17T01:39:11.068Z,94.50
2023-03-17T01:40:14.066Z,94.35
2023-03-17T01:41:11.080Z,94.30
2023-03-17T01:42:11.065Z,94.23
2023-03-17T01:43:19.059Z,94.17
2023-03-17T01:44:15.063Z,94.35
2023-03-17T01:45:19.077Z,94.58
2023-03-17T01:46:19.066Z,94.58
2023-03-17T01:47:11.068Z,94.43
2023-03-17T01:48:11.061Z,94.27
2023-03-17T01:49:17.079Z,94.07
2023-03-17T01:50:11.068Z,94.15
2023-03-17T01:51:15.064Z,94.25
2023-03-17T01:52:16.066Z,94.38
2023-03-17T01:53:11.072Z,94.36
2023-03-17T01:54:15.063Z,94.45
2023-03-17T01:55:11.071Z,94.49
2023-03-17T01:56:11.075Z,94.52
2023-03-17T01:57:19.064Z,94.27
2023-03-17T01:58:11.064Z,94.23
2023-03-17T01:59:13.069Z,94.13
2023-03-17T02:00:12.070Z,94.25
2023-03-17T02:01:11.140Z,94.20
2023-03-17T02:02:12.073Z,94.31
2023-03-17T02:03:11.082Z,94.09
2023-03-17T02:04:11.149Z,94.14
2023-03-17T02:05:11.070Z,94.02
2023-03-17T02:06:11.087Z,94.04
2023-03-17T02:07:11.065Z,94.08
2023-03-17T02:08:15.066Z,94.06
2023-03-17T02:09:11.074Z,93.80
2023-03-17T02:10:11.077Z,93.59
2023-03-17T02:11:11.066Z,93.39
2023-03-17T02:12:11.067Z,93.57
2023-03-17T02:13:12.079Z,93.51
2023-03-17T02:14:11.069Z,93.27
2023-03-17T02:15:11.066Z,93.35
2023-03-17T02:16:15.107Z,93.35
2023-03-17T02:17:11.075Z,93.48
2023-03-17T02:18:11.065Z,93.38
2023-03-17T02:19:11.068Z,93.08
2023-03-17T02:20:21.069Z,93.20
2023-03-17T02:21:19.066Z,93.23
2023-03-17T02:22:11.071Z,93.29
2023-03-17T02:23:11.067Z,93.22
2023-03-17T02:24:18.068Z,93.27
2023-03-17T02:25:11.067Z,93.26
2023-03-17T02:26:11.069Z,93.43
2023-03-17T02:27:17.069Z,93.69
2023-03-17T02:28:14.067Z,93.86
2023-03-17T02:29:11.063Z,93.97
2023-03-17T02:30:13.083Z,93.94
2023-03-17T02:31:11.091Z,94.03
2023-03-17T02:32:11.088Z,93.81
2023-03-17T02:33:11.069Z,93.86
2023-03-17T02:34:11.071Z,93.94
2023-03-17T02:35:11.074Z,94.16
2023-03-17T02:36:11.137Z,94.38
2023-03-17T02:37:11.102Z,94.47
2023-03-17T02:38:11.072Z,94.50
2023-03-17T02:39:11.087Z,94.35
2023-03-17T02:40:11.083Z,94.30
2023-03-17T02:41:11.076Z,94.79
2023-03-17T02:42:11.075Z,95.01
2023-03-17T02:43:11.080Z,95.10
2023-03-17T02:44:11.076Z,95.09
2023-03-17T02:45:11.074Z,95.07
2023-03-17T02:46:11.132Z,95.54
2023-03-17T02:47:11.074Z,95.80
2023-03-17T02:48:11.078Z,95.61
2023-03-17T02:49:11.072Z,95.42
2023-03-17T02:50:15.079Z,95.34
2023-03-17T02:51:11.072Z,95.33
2023-03-17T02:52:11.219Z,95.38
2023-03-17T02:53:11.091Z,95.53
2023-03-17T02:54:11.077Z,95.61
2023-03-17T02:55:11.077Z,95.40
2023-03-17T02:56:11.088Z,95.27
2023-03-17T02:57:11.207Z,95.19
2023-03-17T02:58:11.072Z,94.98
2023-03-17T02:59:11.102Z,94.86
2023-03-17T03:00:11.077Z,95.02
2023-03-17T03:01:11.082Z,95.15
2023-03-17T03:02:11.120Z,95.17
2023-03-17T03:03:11.079Z,95.08
2023-03-17T03:04:11.079Z,95.18
2023-03-17T03:05:11.088Z,95.07
2023-03-17T03:06:11.087Z,95.11
2023-03-17T03:07:11.091Z,95.21
2023-03-17T03:08:11.085Z,95.12
2023-03-17T03:09:11.080Z,95.00
2023-03-17T03:10:11.088Z,94.67
2023-03-17T03:11:11.087Z,94.97
2023-03-17T03:12:11.095Z,95.06
2023-03-17T03:13:11.083Z,95.07
2023-03-17T03:14:11.095Z,95.18
2023-03-17T03:15:11.107Z,95.40
2023-03-17T03:16:11.118Z,95.25
2023-03-17T03:17:11.109Z,95.12
2023-03-17T03:18:11.088Z,94.97
2023-03-17T03:19:11.081Z,95.10
2023-03-17T03:20:11.080Z,95.16
2023-03-17T03:21:11.088Z,95.10
2023-03-17T03:22:11.080Z,95.04
2023-03-17T03:23:11.120Z,94.92
2023-03-17T03:24:11.101Z,94.95
2023-03-17T03:25:11.082Z,94.92
2023-03-17T03:26:11.082Z,95.00
2023-03-17T03:27:11.083Z,94.96
2023-03-17T03:28:11.093Z,94.95
2023-03-17T03:29:11.086Z,94.77
2023-03-17T03:30:12.097Z,94.54
2023-03-17T03:31:11.162Z,94.69
2023-03-17T03:32:11.087Z,94.54
2023-03-17T03:33:11.084Z,94.58
2023-03-17T03:34:11.091Z,94.69
2023-03-17T03:35:11.085Z,94.73
2023-03-17T03:36:11.113Z,94.72
2023-03-17T03:37:11.082Z,94.75
2023-03-17T03:38:11.084Z,94.50
2023-03-17T03:39:13.814Z,94.63
2023-03-17T03:40:11.088Z,94.45
2023-03-17T03:41:11.103Z,94.48
2023-03-17T03:42:11.081Z,94.37
2023-03-17T03:43:22.402Z,94.26
2023-03-17T03:44:13.413Z,94.22
2023-03-17T03:45:11.084Z,94.44
2023-03-17T03:46:11.089Z,94.30
2023-03-17T03:47:11.081Z,93.88
2023-03-17T03:48:11.088Z,94.06
2023-03-17T03:49:11.094Z,94.01
2023-03-17T03:50:11.081Z,93.91
2023-03-17T03:51:11.086Z,94.11
2023-03-17T03:52:11.085Z,94.18
2023-03-17T03:53:11.074Z,94.16
2023-03-17T03:54:11.096Z,94.18
2023-03-17T03:55:11.088Z,94.17
2023-03-17T03:56:11.088Z,94.25
2023-03-17T03:57:11.077Z,94.20
2023-03-17T03:58:11.084Z,93.93
2023-03-17T03:59:11.078Z,93.85
2023-03-17T04:00:11.080Z,93.83
2023-03-17T04:01:11.082Z,93.78
2023-03-17T04:02:11.063Z,94.01
2023-03-17T04:03:11.158Z,94.04
2023-03-17T04:04:11.077Z,94.00
2023-03-17T04:05:11.065Z,93.91
2023-03-17T04:06:11.070Z,93.92
2023-03-17T04:07:11.077Z,93.83
2023-03-17T04:08:11.081Z,93.84
2023-03-17T04:09:11.063Z,93.52
2023-03-17T04:10:11.067Z,93.47
2023-03-17T04:11:11.064Z,93.44
2023-03-17T04:12:11.064Z,93.70
2023-03-17T04:13:11.064Z,93.88
2023-03-17T04:14:11.068Z,93.69
2023-03-17T04:15:11.064Z,93.61
2023-03-17T04:16:11.141Z,93.67
2023-03-17T04:17:13.072Z,93.64
2023-03-17T04:18:11.073Z,93.52
2023-03-17T04:19:11.124Z,93.70
2023-03-17T04:20:11.067Z,93.68
2023-03-17T04:21:11.066Z,93.53
2023-03-17T04:22:11.064Z,93.59
2023-03-17T04:23:11.068Z,93.71
2023-03-17T04:24:11.066Z,93.61
2023-03-17T04:25:13.067Z,93.79
2023-03-17T04:26:11.067Z,93.71
2023-03-17T04:27:11.072Z,93.56
2023-03-17T04:28:11.078Z,93.43
2023-03-17T04:29:11.067Z,93.22
2023-03-17T04:30:11.065Z,93.20
2023-03-17T04:31:12.159Z,93.25
2023-03-17T04:32:12.074Z,93.21
2023-03-17T04:33:11.178Z,93.26
2023-03-17T04:34:14.073Z,93.18
2023-03-17T04:35:17.085Z,93.08
2023-03-17T04:36:18.096Z,93.24
2023-03-17T04:37:11.073Z,93.04
2023-03-17T04:38:12.076Z,92.81
2023-03-17T04:39:11.068Z,92.89
2023-03-17T04:40:11.065Z,92.94
2023-03-17T04:41:11.091Z,92.95
2023-03-17T04:42:11.069Z,92.82
2023-03-17T04:43:11.077Z,93.13
2023-03-17T04:44:11.108Z,93.32
2023-03-17T04:45:11.070Z,93.40
2023-03-17T04:46:11.155Z,93.36
2023-03-17T04:47:11.070Z,93.53
2023-03-17T04:48:11.074Z,93.48
2023-03-17T04:49:11.066Z,93.49
2023-03-17T04:50:11.091Z,93.93
2023-03-17T04:51:11.849Z,93.98
2023-03-17T04:52:11.075Z,94.29
2023-03-17T04:53:11.072Z,94.38
2023-03-17T04:54:11.074Z,94.38
2023-03-17T04:55:12.074Z,94.38
2023-03-17T04:56:11.070Z,94.28
2023-03-17T04:57:11.070Z,94.23
2023-03-17T04:58:15.508Z,94.02
2023-03-17T04:59:13.420Z,94.01
2023-03-17T05:00:11.078Z,94.08
2023-03-17T05:01:11.118Z,94.26
2023-03-17T05:02:11.109Z,94.35
2023-03-17T05:03:26.001Z,94.25
2023-03-17T05:04:22.126Z,94.22
2023-03-17T05:05:13.062Z,94.06
2023-03-17T05:06:11.092Z,94.12
2023-03-17T05:07:11.082Z,94.47
2023-03-17T05:08:11.073Z,94.48
2023-03-17T05:09:11.070Z,94.38
2023-03-17T05:10:11.077Z,94.40
2023-03-17T05:11:11.077Z,94.35
2023-03-17T05:12:11.068Z,94.42
2023-03-17T05:13:11.074Z,94.49
2023-03-17T05:14:11.073Z,94.56
2023-03-17T05:15:11.077Z,94.39
2023-03-17T05:16:11.158Z,94.49
2023-03-17T05:17:11.074Z,94.75
2023-03-17T05:18:11.077Z,94.53
2023-03-17T05:19:11.072Z,94.59
2023-03-17T05:20:12.074Z,94.54
2023-03-17T05:21:11.075Z,94.30
2023-03-17T05:22:11.073Z,94.32
2023-03-17T05:23:11.080Z,94.34
2023-03-17T05:24:11.069Z,94.50
2023-03-17T05:25:11.074Z,94.63
2023-03-17T05:26:11.082Z,94.65
2023-03-17T05:27:11.084Z,94.71
2023-03-17T05:28:11.073Z,94.76
2023-03-17T05:29:11.085Z,94.77
2023-03-17T05:30:11.072Z,94.74
2023-03-17T05:31:11.292Z,94.67
2023-03-17T05:32:11.076Z,94.58
2023-03-17T05:33:11.074Z,94.52
2023-03-17T05:34:11.080Z,94.55
2023-03-17T05:35:11.072Z,94.60
2023-03-17T05:36:11.078Z,94.61
2023-03-17T05:37:11.070Z,94.64
2023-03-17T05:38:11.073Z,94.64
2023-03-17T05:39:13.345Z,94.56
2023-03-17T05:40:11.072Z,94.56
2023-03-17T05:41:11.075Z,94.58
2023-03-17T05:42:11.081Z,94.36
2023-03-17T05:43:11.072Z,94.33
2023-03-17T05:44:11.076Z,94.57
2023-03-17T05:45:11.088Z,94.29
2023-03-17T05:46:11.160Z,94.29
2023-03-17T05:47:11.073Z,94.24
2023-03-17T05:48:11.076Z,94.27
2023-03-17T05:49:11.073Z,94.49
2023-03-17T05:50:11.084Z,94.53
2023-03-17T05:51:11.079Z,94.48
2023-03-17T05:52:11.079Z,94.60
2023-03-17T05:53:11.096Z,94.50
2023-03-17T05:54:11.075Z,94.37
2023-03-17T05:55:11.078Z,94.35
2023-03-17T05:56:11.092Z,94.44
2023-03-17T05:57:11.114Z,94.46
2023-03-17T05:58:11.080Z,94.30
2023-03-17T05:59:11.075Z,94.32
2023-03-17T06:00:12.796Z,94.36
2023-03-17T06:01:11.087Z,94.44
2023-03-17T06:02:11.115Z,94.28
2023-03-17T06:03:11.114Z,94.28
2023-03-17T06:04:11.080Z,94.34
2023-03-17T06:05:11.078Z,94.15
2023-03-17T06:06:11.087Z,94.50
2023-03-17T06:07:11.096Z,94.42
2023-03-17T06:08:11.078Z,94.62
2023-03-17T06:09:11.075Z,94.58
2023-03-17T06:10:11.083Z,94.49
2023-03-17T06:11:11.080Z,94.66
2023-03-17T06:12:11.076Z,94.69
2023-03-17T06:13:11.091Z,94.67
2023-03-17T06:14:11.080Z,94.49
2023-03-17T06:15:11.082Z,94.40
2023-03-17T06:16:11.136Z,94.33
2023-03-17T06:17:11.081Z,94.22
2023-03-17T06:18:11.096Z,94.08
2023-03-17T06:19:11.079Z,94.10
2023-03-17T06:20:11.081Z,94.03
2023-03-17T06:21:11.082Z,94.11
2023-03-17T06:22:11.077Z,94.04
2023-03-17T06:23:11.084Z,93.93
2023-03-17T06:24:11.081Z,93.96
2023-03-17T06:25:11.080Z,94.05
2023-03-17T06:26:11.082Z,93.83
2023-03-17T06:27:11.079Z,93.92
2023-03-17T06:28:11.084Z,93.95
2023-03-17T06:29:13.083Z,94.09
2023-03-17T06:30:11.117Z,94.21
2023-03-17T06:31:11.183Z,94.06
2023-03-17T06:32:20.319Z,94.07
2023-03-17T06:33:13.521Z,93.96
2023-03-17T06:34:11.083Z,94.04
2023-03-17T06:35:11.089Z,93.97
2023-03-17T06:36:11.084Z,94.17
2023-03-17T06:37:11.090Z,94.08
2023-03-17T06:38:11.090Z,94.02
2023-03-17T06:39:11.078Z,94.13
2023-03-17T06:40:13.089Z,94.12
2023-03-17T06:41:11.084Z,94.21
2023-03-17T06:42:11.084Z,94.16
2023-03-17T06:43:11.082Z,93.99
2023-03-17T06:44:11.085Z,94.09
2023-03-17T06:45:11.102Z,94.09
2023-03-17T06:46:11.137Z,94.11
2023-03-17T06:47:11.084Z,93.95
2023-03-17T06:48:11.083Z,94.07
2023-03-17T06:49:11.080Z,94.05
2023-03-17T06:50:11.084Z,94.22
2023-03-17T06:51:11.087Z,94.05
2023-03-17T06:52:11.088Z,94.05
2023-03-17T06:53:11.088Z,94.06
2023-03-17T06:54:11.084Z,93.87
2023-03-17T06:55:11.087Z,93.67
2023-03-17T06:56:20.140Z,93.62
2023-03-17T06:57:13.089Z,93.73
2023-03-17T06:58:11.081Z,93.49
2023-03-17T06:59:11.088Z,93.52
2023-03-17T07:00:11.089Z,93.30
2023-03-17T07:01:11.054Z,93.32
2023-03-17T07:02:11.166Z,93.36
2023-03-17T07:03:11.071Z,93.18
2023-03-17T07:04:11.146Z,93.20
2023-03-17T07:05:11.059Z,92.97
2023-03-17T07:06:11.069Z,93.04
2023-03-17T07:07:11.060Z,92.78
2023-03-17T07:08:11.065Z,92.91
2023-03-17T07:09:11.066Z,92.79
2023-03-17T07:10:11.055Z,92.81
2023-03-17T07:11:11.065Z,92.86
2023-03-17T07:12:11.077Z,92.93
2023-03-17T07:13:12.062Z,92.88
2023-03-17T07:14:11.065Z,92.87
2023-03-17T07:15:11.075Z,92.85
2023-03-17T07:16:11.093Z,92.98
2023-03-17T07:17:13.091Z,92.78
2023-03-17T07:18:11.071Z,92.59
2023-03-17T07:19:11.057Z,92.49
2023-03-17T07:20:11.062Z,92.27
2023-03-17T07:21:11.108Z,92.23
2023-03-17T07:22:11.081Z,92.28
2023-03-17T07:23:14.061Z,92.17
2023-03-17T07:24:11.078Z,92.02
2023-03-17T07:25:11.068Z,92.01
2023-03-17T07:26:11.073Z,91.93
2023-03-17T07:27:11.061Z,91.65
2023-03-17T07:28:11.071Z,91.67
2023-03-17T07:29:11.072Z,91.89
2023-03-17T07:30:13.066Z,91.79
2023-03-17T07:31:12.131Z,91.67
2023-03-17T07:32:11.061Z,91.82
2023-03-17T07:33:11.186Z,91.77
2023-03-17T07:34:11.061Z,91.87
2023-03-17T07:35:11.055Z,91.76
2023-03-17T07:36:11.112Z,91.80
2023-03-17T07:37:11.070Z,91.78
2023-03-17T07:38:11.059Z,91.74
2023-03-17T07:39:12.066Z,91.81
2023-03-17T07:40:11.068Z,91.87
2023-03-17T07:41:13.104Z,91.87
2023-03-17T07:42:11.056Z,91.87
2023-03-17T07:43:11.065Z,92.08
2023-03-17T07:44:11.064Z,91.85
2023-03-17T07:45:11.062Z,91.97
2023-03-17T07:46:11.123Z,91.77
2023-03-17T07:47:11.076Z,91.89
2023-03-17T07:48:11.060Z,91.88
2023-03-17T07:49:11.081Z,92.02
2023-03-17T07:50:11.073Z,91.93
2023-03-17T07:51:14.054Z,91.95
2023-03-17T07:52:11.119Z,91.94
2023-03-17T07:53:11.067Z,92.04
2023-03-17T07:54:12.308Z,91.84
2023-03-17T07:55:12.097Z,91.51
2023-03-17T07:56:11.119Z,91.49
2023-03-17T07:57:11.077Z,91.71
2023-03-17T07:58:11.819Z,91.14
2023-03-17T07:59:11.071Z,91.33
2023-03-17T08:00:13.061Z,91.28
2023-03-17T08:01:11.063Z,91.36
2023-03-17T08:02:17.214Z,91.14
2023-03-17T08:03:11.260Z,90.81
2023-03-17T08:04:11.151Z,90.77
2023-03-17T08:05:11.063Z,90.71
2023-03-17T08:06:11.068Z,90.52
2023-03-17T08:07:11.065Z,90.33
2023-03-17T08:08:11.161Z,90.45
2023-03-17T08:09:11.072Z,90.55
2023-03-17T08:10:11.061Z,90.36
2023-03-17T08:11:11.103Z,90.31
2023-03-17T08:12:11.070Z,90.21
2023-03-17T08:13:11.065Z,90.11
2023-03-17T08:14:11.070Z,90.35
2023-03-17T08:15:11.070Z,90.42
2023-03-17T08:16:11.172Z,90.06
2023-03-17T08:17:11.067Z,89.94
2023-03-17T08:18:11.080Z,89.77
2023-03-17T08:19:11.183Z,89.88
2023-03-17T08:20:11.064Z,89.52
2023-03-17T08:21:11.098Z,89.67
2023-03-17T08:22:11.081Z,89.44
2023-03-17T08:23:11.065Z,89.50
2023-03-17T08:24:11.151Z,89.37
2023-03-17T08:25:11.085Z,89.35
2023-03-17T08:26:11.068Z,89.18
2023-03-17T08:27:11.074Z,89.25
2023-03-17T08:28:11.134Z,89.21
2023-03-17T08:29:11.101Z,89.07
2023-03-17T08:30:11.069Z,88.96
2023-03-17T08:31:14.194Z,89.28
2023-03-17T08:32:11.066Z,89.13
2023-03-17T08:33:11.175Z,89.10
2023-03-17T08:34:11.066Z,89.20
2023-03-17T08:35:13.067Z,89.12
2023-03-17T08:36:11.065Z,88.90
2023-03-17T08:37:11.639Z,88.97
2023-03-17T08:38:11.073Z,89.09
2023-03-17T08:39:11.072Z,88.90
2023-03-17T08:40:11.071Z,88.46
2023-03-17T08:41:11.066Z,87.90
2023-03-17T08:42:11.070Z,88.05
2023-03-17T08:43:11.067Z,87.91
2023-03-17T08:44:12.064Z,87.81
2023-03-17T08:45:13.071Z,87.43
2023-03-17T08:46:18.149Z,87.35
2023-03-17T08:47:11.069Z,87.09
2023-03-17T08:48:11.067Z,87.19
2023-03-17T08:49:11.073Z,87.04
2023-03-17T08:50:11.069Z,86.82
2023-03-17T08:51:11.075Z,86.89
2023-03-17T08:52:11.093Z,86.89
2023-03-17T08:53:11.072Z,86.53
2023-03-17T08:54:11.069Z,86.11
2023-03-17T08:55:12.087Z,85.88
2023-03-17T08:56:11.070Z,85.58
2023-03-17T08:57:11.071Z,85.47
2023-03-17T08:58:11.070Z,85.25
2023-03-17T08:59:11.068Z,84.87
2023-03-17T09:00:19.078Z,84.88
2023-03-17T09:01:11.148Z,84.71
2023-03-17T09:02:12.132Z,84.62
2023-03-17T09:03:11.077Z,84.77
2023-03-17T09:04:11.123Z,84.74
2023-03-17T09:05:13.068Z,84.39
2023-03-17T09:06:11.076Z,84.33
2023-03-17T09:07:11.073Z,84.14
2023-03-17T09:08:11.102Z,84.14
2023-03-17T09:09:11.073Z,84.14
2023-03-17T09:10:11.080Z,84.36
2023-03-17T09:11:11.072Z,84.40
2023-03-17T09:12:11.079Z,84.19
2023-03-17T09:13:11.079Z,83.94
2023-03-17T09:14:11.071Z,83.65
2023-03-17T09:15:11.081Z,84.04
2023-03-17T09:16:11.178Z,84.31
2023-03-17T09:17:11.073Z,83.93
2023-03-17T09:18:11.072Z,83.67
2023-03-17T09:19:11.075Z,83.71
2023-03-17T09:20:11.073Z,83.54
2023-03-17T09:21:11.074Z,83.58
2023-03-17T09:22:13.073Z,83.55
2023-03-17T09:23:11.076Z,83.42
2023-03-17T09:24:11.143Z,83.46
2023-03-17T09:25:11.076Z,83.37
2023-03-17T09:26:11.072Z,83.40
2023-03-17T09:27:11.074Z,83.32
2023-03-17T09:28:11.080Z,82.96
2023-03-17T09:29:11.073Z,82.70
2023-03-17T09:30:11.094Z,82.73
2023-03-17T09:31:11.108Z,82.65
2023-03-17T09:32:11.077Z,82.67
2023-03-17T09:33:11.101Z,82.64
2023-03-17T09:34:11.075Z,82.58
2023-03-17T09:35:11.075Z,82.37
2023-03-17T09:36:11.159Z,82.30
2023-03-17T09:37:11.075Z,82.47
2023-03-17T09:38:11.074Z,82.49
2023-03-17T09:39:11.075Z,82.42
2023-03-17T09:40:16.084Z,82.29
2023-03-17T09:41:21.072Z,82.38
2023-03-17T09:42:19.075Z,82.27
2023-03-17T09:43:21.076Z,81.75
2023-03-17T09:44:23.094Z,81.53
2023-03-17T09:45:21.078Z,81.39
2023-03-17T09:46:19.170Z,80.91
2023-03-17T09:47:19.071Z,80.87
2023-03-17T09:48:21.075Z,80.63
2023-03-17T09:49:18.081Z,80.44
2023-03-17T09:50:19.079Z,80.17
2023-03-17T09:51:12.074Z,79.52
2023-03-17T09:52:13.078Z,79.47
2023-03-17T09:53:19.076Z,79.75
2023-03-17T09:54:18.076Z,79.30
2023-03-17T09:55:18.072Z,79.40
2023-03-17T09:56:15.084Z,79.57
2023-03-17T09:57:16.084Z,78.79
2023-03-17T09:58:11.079Z,78.63
2023-03-17T09:59:19.075Z,78.65
2023-03-17T10:00:18.081Z,78.14
2023-03-17T10:01:11.072Z,77.81
2023-03-17T10:02:19.073Z,78.13
2023-03-17T10:03:12.081Z,78.22
2023-03-17T10:04:11.084Z,77.73
2023-03-17T10:05:20.129Z,77.45
2023-03-17T10:06:19.077Z,77.04
2023-03-17T10:07:14.074Z,76.47
2023-03-17T10:08:30.140Z,76.88
2023-03-17T10:09:26.599Z,75.93
2023-03-17T10:10:19.086Z,75.81
2023-03-17T10:11:19.075Z,75.34
2023-03-17T10:12:17.074Z,74.78
2023-03-17T10:13:19.075Z,74.45
2023-03-17T10:14:21.075Z,74.08
2023-03-17T10:15:21.074Z,73.84
2023-03-17T10:16:20.162Z,73.24
2023-03-17T10:17:19.073Z,73.04
2023-03-17T10:18:14.075Z,72.67
2023-03-17T10:19:19.075Z,72.68
2023-03-17T10:20:17.109Z,72.75
2023-03-17T10:21:13.123Z,73.15
2023-03-17T10:22:21.074Z,73.21
2023-03-17T10:23:15.084Z,72.93
2023-03-17T10:24:11.079Z,72.93
2023-03-17T10:25:17.085Z,73.12
2023-03-17T10:26:21.094Z,72.68
2023-03-17T10:27:13.085Z,72.93
2023-03-17T10:28:19.076Z,73.03
2023-03-17T10:29:19.073Z,72.61
2023-03-17T10:30:15.083Z,72.85
2023-03-17T10:31:18.181Z,73.12
2023-03-17T10:32:13.094Z,72.93
2023-03-17T10:33:11.153Z,72.82
2023-03-17T10:34:19.079Z,73.02
2023-03-17T10:35:12.084Z,73.18
2023-03-17T10:36:16.092Z,73.24
2023-03-17T10:37:16.085Z,72.89
2023-03-17T10:38:15.078Z,73.27
2023-03-17T10:39:16.103Z,73.28
2023-03-17T10:40:21.091Z,73.26
2023-03-17T10:41:15.079Z,73.33
2023-03-17T10:42:17.086Z,73.63
2023-03-17T10:43:19.112Z,73.68
2023-03-17T10:44:15.075Z,73.72
2023-03-17T10:45:19.081Z,73.57
2023-03-17T10:46:21.158Z,73.44
2023-03-17T10:47:19.085Z,73.64
2023-03-17T10:48:11.082Z,73.81
2023-03-17T10:49:15.081Z,73.87
2023-03-17T10:50:19.188Z,73.51
2023-03-17T10:51:11.108Z,73.23
2023-03-17T10:52:21.114Z,73.17
2023-03-17T10:53:19.080Z,73.01
2023-03-17T10:54:17.081Z,72.91
2023-03-17T10:55:12.089Z,72.96
2023-03-17T10:56:15.083Z,72.71
2023-03-17T10:57:12.126Z,72.49
2023-03-17T10:58:19.083Z,72.41
2023-03-17T10:59:19.116Z,72.66
2023-03-17T11:00:17.080Z,72.33
2023-03-17T11:01:20.220Z,72.20
2023-03-17T11:02:19.084Z,72.16
2023-03-17T11:03:20.110Z,72.16
2023-03-17T11:04:19.167Z,71.93
2023-03-17T11:05:21.091Z,71.85
2023-03-17T11:06:11.085Z,71.97
2023-03-17T11:07:18.097Z,72.28
2023-03-17T11:08:19.113Z,72.22
2023-03-17T11:09:14.086Z,71.74
2023-03-17T11:10:18.169Z,71.68
2023-03-17T11:11:16.116Z,71.13
2023-03-17T11:12:19.093Z,70.92
2023-03-17T11:13:15.097Z,70.92
2023-03-17T11:14:14.088Z,71.27
2023-03-17T11:15:15.087Z,71.33
2023-03-17T11:16:19.126Z,71.05
2023-03-17T11:17:19.090Z,70.88
2023-03-17T11:18:18.111Z,70.56
2023-03-17T11:19:15.088Z,70.58
2023-03-17T11:20:22.097Z,70.52
2023-03-17T11:21:19.091Z,69.69
2023-03-17T11:22:21.087Z,69.88
2023-03-17T11:23:19.101Z,70.17
2023-03-17T11:24:19.090Z,69.42
2023-03-17T11:25:18.096Z,69.54
2023-03-17T11:26:21.096Z,69.63
2023-03-17T11:27:21.091Z,69.89
2023-03-17T11:28:17.083Z,70.32
2023-03-17T11:29:21.101Z,70.44
2023-03-17T11:30:19.114Z,70.90
2023-03-17T11:31:19.167Z,70.88
2023-03-17T11:32:19.094Z,70.87
2023-03-17T11:33:19.093Z,70.79
2023-03-17T11:34:15.093Z,70.63
2023-03-17T11:35:19.091Z,70.93
2023-03-17T11:36:18.096Z,70.76
2023-03-17T11:37:21.093Z,70.25
2023-03-17T11:38:19.092Z,70.19
2023-03-17T11:39:20.106Z,70.24
2023-03-17T11:40:21.092Z,69.86
2023-03-17T11:41:19.088Z,70.04
2023-03-17T11:42:19.106Z,69.93
2023-03-17T11:43:23.100Z,69.37
2023-03-17T11:44:19.117Z,69.19
2023-03-17T11:45:20.125Z,69.32
2023-03-17T11:46:20.193Z,68.51
2023-03-17T11:47:19.131Z,68.98
2023-03-17T11:48:21.104Z,68.99
2023-03-17T11:49:18.102Z,69.40
2023-03-17T11:50:21.097Z,69.28
2023-03-17T11:51:19.094Z,68.87
2023-03-17T11:52:19.090Z,68.13
2023-03-17T11:53:23.102Z,67.99
2023-03-17T11:54:19.095Z,67.73
2023-03-17T11:55:21.100Z,67.95
2023-03-17T11:56:19.104Z,66.97
2023-03-17T11:57:18.097Z,66.51
2023-03-17T11:58:19.088Z,66.92
2023-03-17T11:59:23.092Z,66.65
2023-03-17T12:00:19.103Z,66.96
2023-03-17T12:01:17.094Z,66.98
2023-03-17T12:02:21.101Z,66.86
2023-03-17T12:03:19.101Z,66.83
2023-03-17T12:04:21.118Z,66.93
2023-03-17T12:05:13.098Z,66.87
2023-03-17T12:06:17.090Z,66.63
2023-03-17T12:07:22.089Z,66.70
2023-03-17T12:08:19.090Z,66.39
2023-03-17T12:09:21.115Z,66.98
2023-03-17T12:10:19.104Z,66.81
2023-03-17T12:11:16.093Z,67.03
2023-03-17T12:12:11.088Z,66.74
2023-03-17T12:13:18.089Z,66.99
2023-03-17T12:14:21.121Z,66.92
2023-03-17T12:15:17.092Z,67.01
2023-03-17T12:16:21.104Z,66.50
2023-03-17T12:17:19.089Z,66.69
2023-03-17T12:18:19.095Z,66.71
2023-03-17T12:19:19.107Z,66.30
2023-03-17T12:20:21.094Z,66.02
2023-03-17T12:21:21.088Z,66.22
2023-03-17T12:22:19.093Z,66.07
2023-03-17T12:23:19.091Z,66.46
2023-03-17T12:24:19.107Z,66.15
2023-03-17T12:25:19.094Z,66.09
2023-03-17T12:26:18.113Z,66.12
2023-03-17T12:27:19.094Z,66.26
2023-03-17T12:28:16.108Z,65.55
2023-03-17T12:29:19.093Z,65.75
2023-03-17T12:30:17.107Z,65.79
2023-03-17T12:31:17.138Z,65.70
2023-03-17T12:32:19.100Z,65.90
2023-03-17T12:33:21.117Z,65.49
2023-03-17T12:34:19.096Z,65.67
2023-03-17T12:35:19.134Z,65.39
2023-03-17T12:36:14.149Z,65.68
2023-03-17T12:37:11.095Z,65.11
2023-03-17T12:38:17.114Z,65.36
2023-03-17T12:39:15.093Z,65.10
2023-03-17T12:40:17.096Z,65.25
2023-03-17T12:41:19.108Z,65.28
2023-03-17T12:42:19.095Z,65.07
2023-03-17T12:43:19.111Z,65.47
2023-03-17T12:44:21.094Z,65.43
2023-03-17T12:45:23.104Z,65.01
2023-03-17T12:46:23.161Z,65.03
2023-03-17T12:47:19.101Z,65.11
2023-03-17T12:48:19.095Z,64.63
2023-03-17T12:49:21.091Z,64.78
2023-03-17T12:50:19.095Z,64.52
2023-03-17T12:51:19.106Z,64.43
2023-03-17T12:52:21.096Z,64.36
2023-03-17T12:53:19.244Z,64.05
2023-03-17T12:54:18.095Z,64.04
2023-03-17T12:55:15.100Z,63.66